createdAt,value
2022-09-03T00:00:55.897Z,1.10
2022-09-03T00:03:24.383Z,1.40
2022-09-03T00:06:02.803Z,1.80
2022-09-03T00:08:43.988Z,1.40
2022-09-03T00:11:16.057Z,2.30
2022-09-03T00:13:47.819Z,1.30
2022-09-03T00:16:17.736Z,1.30
2022-09-03T00:18:46.843Z,1.20
2022-09-03T00:21:39.501Z,1.30
2022-09-03T00:24:12.822Z,1.40
2022-09-03T00:26:45.331Z,1.40
2022-09-03T00:29:21.549Z,1.40
2022-09-03T00:31:53.859Z,1.50
2022-09-03T00:34:31.837Z,1.40
2022-09-03T00:36:59.103Z,1.70
2022-09-03T00:39:27.252Z,1.40
2022-09-03T00:42:31.308Z,1.50
2022-09-03T00:45:21.502Z,1.70
2022-09-03T00:48:22.692Z,2.30
2022-09-03T00:51:14.387Z,1.50
2022-09-03T00:53:54.856Z,1.60
2022-09-03T00:56:44.878Z,1.80
2022-09-03T00:59:15.488Z,1.60
2022-09-03T01:01:55.855Z,2.00
2022-09-03T01:04:53.927Z,2.30
2022-09-03T01:07:48.527Z,1.90
2022-09-03T01:10:38.934Z,1.80
2022-09-03T01:13:10.697Z,2.00
2022-09-03T01:16:08.847Z,1.90
2022-09-03T01:18:45.444Z,1.70
2022-09-03T01:21:35.044Z,1.70
2022-09-03T01:24:07.731Z,1.80
2022-09-03T01:27:01.716Z,1.90
2022-09-03T01:29:34.953Z,1.50
2022-09-03T01:32:35.975Z,1.90
2022-09-03T01:35:06.514Z,1.80
2022-09-03T01:40:13.421Z,1.90
2022-09-03T01:42:40.374Z,2.40
2022-09-03T01:45:08.552Z,1.70
2022-09-03T01:47:51.486Z,1.80
2022-09-03T01:50:21.502Z,2.50
2022-09-03T01:53:05.183Z,1.80
2022-09-03T01:55:34.254Z,1.90
2022-09-03T01:58:06.984Z,1.80
2022-09-03T02:00:34.721Z,2.20
2022-09-03T02:03:07.180Z,2.00
2022-09-03T02:05:35.897Z,1.80
2022-09-03T02:08:05.635Z,1.90
2022-09-03T02:10:50.284Z,1.60
2022-09-03T02:13:26.083Z,1.30
2022-09-03T02:15:53.772Z,1.60
2022-09-03T02:18:32.145Z,1.20
2022-09-03T02:21:00.117Z,1.60
2022-09-03T02:23:28.535Z,1.20
2022-09-03T02:25:57.502Z,1.80
2022-09-03T02:28:26.089Z,1.90
2022-09-03T02:30:53.216Z,2.20
2022-09-03T02:33:20.922Z,1.50
2022-09-03T02:35:47.980Z,1.40
2022-09-03T02:38:22.041Z,1.30
2022-09-03T02:40:49.353Z,1.40
2022-09-03T02:43:41.190Z,1.50
2022-09-03T02:46:10.478Z,1.40
2022-09-03T02:48:38.008Z,2.30
2022-09-03T02:51:13.629Z,1.40
2022-09-03T02:53:42.720Z,1.30
2022-09-03T02:56:10.291Z,2.10
2022-09-03T02:58:37.343Z,1.70
2022-09-03T03:01:04.790Z,1.70
2022-09-03T03:03:32.477Z,1.50
2022-09-03T03:06:01.788Z,1.60
2022-09-03T03:08:30.584Z,1.40
2022-09-03T03:10:58.990Z,1.40
2022-09-03T03:13:26.978Z,1.30
2022-09-03T03:16:01.273Z,1.70
2022-09-03T03:18:29.963Z,1.50
2022-09-03T03:20:57.836Z,1.70
2022-09-03T03:23:25.093Z,1.60
2022-09-03T03:25:52.064Z,1.60
2022-09-03T03:28:20.532Z,2.00
2022-09-03T03:30:49.255Z,2.60
2022-09-03T03:33:16.996Z,2.00
2022-09-03T03:35:44.558Z,1.60
2022-09-03T03:38:11.820Z,2.20
2022-09-03T03:40:39.488Z,1.80
2022-09-03T03:43:06.647Z,2.70
2022-09-03T03:45:33.538Z,1.90
2022-09-03T03:48:00.887Z,2.00
2022-09-03T03:50:28.517Z,2.20
2022-09-03T03:52:55.769Z,2.50
2022-09-03T03:55:23.046Z,2.60
2022-09-03T03:57:54.065Z,2.20
2022-09-03T04:00:22.036Z,1.90
2022-09-03T04:02:52.767Z,2.50
2022-09-03T04:05:23.268Z,2.30
2022-09-03T04:07:50.938Z,1.90
2022-09-03T04:10:17.911Z,1.90
2022-09-03T04:12:44.857Z,1.50
2022-09-03T04:15:12.325Z,2.20
2022-09-03T04:17:40.081Z,2.00
2022-09-03T04:20:07.443Z,2.30
2022-09-03T04:22:34.400Z,1.80
2022-09-03T04:25:01.355Z,1.70
2022-09-03T04:27:29.442Z,1.70
2022-09-03T04:29:57.113Z,1.60
2022-09-03T04:32:42.706Z,1.60
2022-09-03T04:35:10.163Z,2.10
2022-09-03T04:37:37.332Z,1.50
2022-09-03T04:40:05.390Z,1.60
2022-09-03T04:42:32.371Z,1.80
2022-09-03T04:44:59.435Z,1.70
2022-09-03T04:47:28.430Z,1.80
2022-09-03T04:49:55.486Z,1.70
2022-09-03T04:52:22.441Z,2.00
2022-09-03T04:54:49.495Z,1.60
2022-09-03T04:57:16.554Z,1.80
2022-09-03T04:59:43.816Z,2.20
2022-09-03T05:02:10.977Z,1.70
2022-09-03T05:04:38.123Z,2.00
2022-09-03T05:07:05.011Z,1.80
2022-09-03T05:09:31.943Z,1.80
2022-09-03T05:11:58.903Z,2.10
2022-09-03T05:14:25.962Z,2.00
2022-09-03T05:16:53.455Z,2.20
2022-09-03T05:19:20.589Z,3.40
2022-09-03T05:21:47.438Z,2.90
2022-09-03T05:24:15.722Z,2.30
2022-09-03T05:26:42.786Z,2.20
2022-09-03T05:29:10.047Z,2.20
2022-09-03T05:31:39.409Z,2.20
2022-09-03T05:34:07.125Z,1.80
2022-09-03T05:36:36.067Z,2.30
2022-09-03T05:39:03.835Z,2.10
2022-09-03T05:41:31.775Z,2.60
2022-09-03T05:44:00.070Z,2.60
2022-09-03T05:46:32.353Z,2.00
2022-09-03T05:49:03.579Z,2.00
2022-09-03T05:51:30.941Z,2.20
2022-09-03T05:53:57.996Z,1.90
2022-09-03T05:56:26.065Z,2.30
2022-09-03T05:58:54.761Z,3.00
2022-09-03T06:01:29.595Z,2.60
2022-09-03T06:04:07.611Z,2.60
2022-09-03T06:06:36.128Z,2.10
2022-09-03T06:09:05.239Z,2.30
2022-09-03T06:11:33.084Z,2.10
2022-09-03T06:14:01.682Z,2.00
2022-09-03T06:16:32.179Z,2.10
2022-09-03T06:19:00.646Z,2.20
2022-09-03T06:21:27.987Z,1.90
2022-09-03T06:23:59.452Z,1.80
2022-09-03T06:26:29.537Z,1.90
2022-09-03T06:28:57.215Z,1.60
2022-09-03T06:31:24.825Z,1.80
2022-09-03T06:33:53.834Z,1.70
2022-09-03T06:36:22.937Z,1.90
2022-09-03T06:38:52.888Z,2.20
2022-09-03T06:41:25.274Z,2.00
2022-09-03T06:43:55.931Z,2.20
2022-09-03T06:46:24.040Z,2.40
2022-09-03T06:48:51.868Z,2.10
2022-09-03T06:51:21.045Z,2.20
2022-09-03T06:53:51.512Z,2.30
2022-09-03T06:56:27.596Z,2.20
2022-09-03T06:58:56.407Z,2.10
2022-09-03T07:01:27.348Z,2.50
2022-09-03T07:04:01.195Z,2.60
2022-09-03T07:06:31.247Z,2.70
2022-09-03T07:09:00.528Z,2.20
2022-09-03T07:11:29.641Z,2.10
2022-09-03T07:13:58.229Z,3.50
2022-09-03T07:16:28.168Z,2.50
2022-09-03T07:18:56.502Z,3.10
2022-09-03T07:21:28.356Z,3.00
2022-09-03T07:23:55.917Z,2.50
2022-09-03T07:26:29.059Z,2.70
2022-09-03T07:28:57.083Z,2.90
2022-09-03T07:31:34.129Z,2.50
2022-09-03T07:34:10.087Z,2.60
2022-09-03T07:36:41.712Z,2.30
2022-09-03T07:39:09.475Z,3.30
2022-09-03T07:41:38.106Z,2.60
2022-09-03T07:44:08.159Z,2.20
2022-09-03T07:46:41.665Z,2.50
2022-09-03T07:49:09.560Z,2.60
2022-09-03T07:51:37.536Z,2.50
2022-09-03T07:54:07.675Z,2.30
2022-09-03T07:56:36.192Z,2.40
2022-09-03T07:59:05.499Z,2.80
2022-09-03T08:01:36.139Z,2.20
2022-09-03T08:04:05.192Z,3.10
2022-09-03T08:06:39.361Z,3.00
2022-09-03T08:09:08.659Z,2.50
2022-09-03T08:11:44.935Z,2.40
2022-09-03T08:14:14.982Z,2.60
2022-09-03T08:16:49.228Z,3.30
2022-09-03T08:19:18.763Z,2.60
2022-09-03T08:21:46.129Z,2.70
2022-09-03T08:24:16.454Z,2.50
2022-09-03T08:26:50.644Z,2.70
2022-09-03T08:29:19.871Z,2.80
2022-09-03T08:31:47.607Z,2.90
2022-09-03T08:34:17.138Z,3.00
2022-09-03T08:36:46.886Z,2.40
2022-09-03T08:39:15.444Z,2.20
2022-09-03T08:41:53.065Z,2.40
2022-09-03T08:44:26.744Z,2.30
2022-09-03T08:47:16.109Z,2.80
2022-09-03T08:49:49.522Z,2.70
2022-09-03T08:52:32.784Z,2.70
2022-09-03T08:55:34.211Z,2.80
2022-09-03T08:58:03.512Z,2.30
2022-09-03T09:00:41.014Z,2.80
2022-09-03T09:03:26.532Z,2.70
2022-09-03T09:05:59.391Z,2.90
2022-09-03T09:08:35.998Z,2.80
2022-09-03T09:11:09.691Z,2.50
2022-09-03T09:13:48.110Z,2.40
2022-09-03T09:16:33.897Z,3.20
2022-09-03T09:19:13.582Z,2.70
2022-09-03T09:21:46.091Z,3.00
2022-09-03T09:24:26.797Z,2.70
2022-09-03T09:27:00.435Z,2.30
2022-09-03T09:29:37.387Z,2.00
2022-09-03T09:32:07.620Z,2.10
2022-09-03T09:34:38.771Z,2.00
2022-09-03T09:37:08.690Z,2.10
2022-09-03T09:39:37.046Z,2.20
2022-09-03T09:42:12.323Z,2.30
2022-09-03T09:44:41.115Z,2.00
2022-09-03T09:47:22.713Z,2.30
2022-09-03T09:49:53.654Z,2.10
2022-09-03T09:52:22.450Z,2.60
2022-09-03T09:54:49.606Z,2.00
2022-09-03T09:57:18.402Z,1.90
2022-09-03T09:59:46.618Z,2.20
2022-09-03T10:02:26.406Z,2.20
2022-09-03T10:04:56.409Z,2.60
2022-09-03T10:07:32.354Z,2.40
2022-09-03T10:10:03.063Z,1.90
2022-09-03T10:15:22.153Z,2.20
2022-09-03T10:18:14.849Z,2.10
2022-09-03T10:20:42.685Z,1.90
2022-09-03T10:23:25.645Z,2.00
2022-09-03T10:26:10.075Z,1.90
2022-09-03T10:28:42.412Z,1.90
2022-09-03T10:31:25.261Z,2.30
2022-09-03T10:34:15.775Z,1.90
2022-09-03T10:36:57.157Z,1.80
2022-09-03T10:39:45.884Z,1.90
2022-09-03T10:42:36.008Z,2.10
2022-09-03T10:45:23.745Z,2.20
2022-09-03T10:48:04.369Z,2.00
2022-09-03T10:53:44.294Z,2.50
2022-09-03T10:56:17.802Z,1.90
2022-09-03T10:58:45.567Z,1.90
2022-09-03T11:01:34.474Z,2.00
2022-09-03T11:04:22.886Z,2.70
2022-09-03T11:06:54.444Z,1.90
2022-09-03T11:09:31.567Z,2.20
2022-09-03T11:12:06.470Z,2.20
2022-09-03T11:14:40.997Z,2.20
2022-09-03T11:17:22.583Z,2.10
2022-09-03T11:20:15.751Z,2.10
2022-09-03T11:22:43.622Z,2.80
2022-09-03T11:25:10.981Z,2.30
2022-09-03T11:28:01.583Z,2.50
2022-09-03T11:30:48.461Z,2.80
2022-09-03T11:33:18.528Z,22.60
2022-09-03T11:38:21.452Z,6.60
2022-09-03T11:41:17.169Z,3.90
2022-09-03T11:43:44.530Z,3.60
2022-09-03T11:46:28.117Z,3.20
2022-09-03T11:49:13.511Z,2.80
2022-09-03T11:51:42.341Z,2.50
2022-09-03T11:54:21.283Z,2.70
2022-09-03T11:56:50.793Z,2.60
2022-09-03T11:59:25.657Z,6.10
2022-09-03T12:02:01.663Z,5.20
2022-09-03T12:04:53.769Z,3.30
2022-09-03T12:07:46.007Z,3.20
2022-09-03T12:10:35.148Z,2.70
2022-09-03T12:13:17.561Z,2.00
2022-09-03T12:15:53.353Z,3.10
2022-09-03T12:18:30.098Z,2.70
2022-09-03T12:21:00.436Z,3.50
2022-09-03T12:23:35.473Z,3.00
2022-09-03T12:26:06.112Z,7.90
2022-09-03T12:28:36.487Z,13.80
2022-09-03T12:31:24.902Z,17.60
2022-09-03T12:33:54.518Z,9.00
2022-09-03T12:36:23.588Z,4.40
2022-09-03T12:39:10.956Z,3.50
2022-09-03T12:41:38.992Z,4.50
2022-09-03T12:44:06.183Z,4.40
2022-09-03T12:46:34.542Z,3.10
2022-09-03T12:52:06.171Z,3.50
2022-09-03T12:54:38.318Z,4.00
2022-09-03T12:57:05.881Z,4.20
2022-09-03T12:59:34.274Z,3.80
2022-09-03T13:02:05.711Z,3.90
2022-09-03T13:04:34.833Z,3.80
2022-09-03T13:07:15.813Z,3.70
2022-09-03T13:09:43.577Z,3.00
2022-09-03T13:12:28.857Z,3.60
2022-09-03T13:14:57.653Z,3.00
2022-09-03T13:17:35.868Z,3.30
2022-09-03T13:20:16.781Z,3.20
2022-09-03T13:22:44.215Z,2.70
2022-09-03T13:25:25.399Z,2.80
2022-09-03T13:28:04.326Z,3.70
2022-09-03T13:31:04.921Z,3.50
2022-09-03T13:33:35.609Z,4.30
2022-09-03T13:36:05.389Z,4.10
2022-09-03T13:38:40.062Z,5.20
2022-09-03T13:41:26.776Z,6.20
2022-09-03T13:44:10.213Z,6.90
2022-09-03T13:46:41.774Z,7.20
2022-09-03T13:49:53.878Z,6.90
2022-09-03T13:52:59.638Z,10.10
2022-09-03T13:55:42.259Z,3.80
2022-09-03T13:58:18.731Z,3.80
2022-09-03T14:00:58.588Z,7.90
2022-09-03T14:03:35.368Z,11.00
2022-09-03T14:06:14.582Z,11.40
2022-09-03T14:09:05.729Z,10.10
2022-09-03T14:12:03.915Z,7.20
2022-09-03T14:14:57.597Z,6.70
2022-09-03T14:17:56.703Z,5.20
2022-09-03T14:20:38.645Z,4.20
2022-09-03T14:23:43.855Z,3.30
2022-09-03T14:26:27.099Z,2.30
2022-09-03T14:29:17.278Z,1.90
2022-09-03T14:32:09.338Z,2.10
2022-09-03T14:34:59.205Z,2.40
2022-09-03T14:37:45.101Z,2.20
2022-09-03T14:40:18.810Z,2.20
2022-09-03T14:42:49.340Z,2.30
2022-09-03T14:45:41.558Z,2.80
2022-09-03T14:48:16.621Z,2.50
2022-09-03T14:51:06.001Z,2.50
2022-09-03T14:54:11.863Z,2.90
2022-09-03T14:56:48.541Z,2.50
2022-09-03T14:59:37.205Z,2.20
2022-09-03T15:02:12.730Z,2.90
2022-09-03T15:04:56.910Z,2.80
2022-09-03T15:07:42.313Z,2.40
2022-09-03T15:10:35.464Z,2.70
2022-09-03T15:13:16.798Z,2.40
2022-09-03T15:16:13.743Z,2.50
2022-09-03T15:18:51.586Z,3.20
2022-09-03T15:21:31.946Z,2.50
2022-09-03T15:25:04.019Z,2.70
2022-09-03T15:28:09.209Z,2.70
2022-09-03T15:30:52.912Z,2.60
2022-09-03T15:33:51.332Z,3.00
2022-09-03T15:36:23.403Z,3.40
2022-09-03T15:38:55.795Z,2.90
2022-09-03T15:41:47.795Z,2.90
2022-09-03T15:44:19.467Z,3.00
2022-09-03T15:46:58.492Z,2.60
2022-09-03T15:49:34.152Z,2.80
2022-09-03T15:52:33.955Z,3.30
2022-09-03T15:55:23.252Z,3.00
2022-09-03T15:58:08.980Z,3.40
2022-09-03T16:00:48.551Z,3.20
2022-09-03T16:03:23.690Z,3.30
2022-09-03T16:06:19.435Z,3.80
2022-09-03T16:08:46.517Z,3.60
2022-09-03T16:11:16.883Z,3.30
2022-09-03T16:13:49.945Z,3.20
2022-09-03T16:17:01.953Z,3.60
2022-09-03T16:19:41.298Z,3.50
2022-09-03T16:22:13.584Z,3.30
2022-09-03T16:24:44.049Z,3.50
2022-09-03T16:27:45.478Z,3.70
2022-09-03T16:30:14.862Z,3.60
2022-09-03T16:33:05.183Z,3.70
2022-09-03T16:35:49.646Z,3.50
2022-09-03T16:38:35.263Z,3.90
2022-09-03T16:41:11.723Z,3.60
2022-09-03T16:43:58.534Z,3.60
2022-09-03T16:46:47.201Z,3.90
2022-09-03T16:49:23.470Z,3.80
2022-09-03T16:52:39.032Z,3.60
2022-09-03T16:55:45.239Z,3.70
2022-09-03T16:58:31.238Z,3.30
2022-09-03T17:01:31.135Z,3.10
2022-09-03T17:04:18.099Z,3.40
2022-09-03T17:07:20.795Z,3.40
2022-09-03T17:09:47.683Z,3.80
2022-09-03T17:12:43.830Z,3.90
2022-09-03T17:15:30.130Z,3.90
2022-09-03T17:18:01.968Z,3.90
2022-09-03T17:20:45.934Z,4.00
2022-09-03T17:23:48.000Z,3.90
2022-09-03T17:26:17.009Z,3.90
2022-09-03T17:29:19.398Z,4.10
2022-09-03T17:31:55.580Z,4.10
2022-09-03T17:34:48.132Z,3.80
2022-09-03T17:37:53.289Z,4.20
2022-09-03T17:40:36.734Z,4.20
2022-09-03T17:43:29.085Z,4.10
2022-09-03T17:46:05.702Z,4.00
2022-09-03T17:48:53.343Z,4.10
2022-09-03T17:51:26.720Z,4.20
2022-09-03T17:54:27.682Z,4.30
2022-09-03T17:56:57.606Z,4.00
2022-09-03T17:59:57.126Z,3.90
2022-09-03T18:02:32.912Z,4.30
2022-09-03T18:05:24.840Z,4.20
2022-09-03T18:08:04.696Z,4.50
2022-09-03T18:10:38.006Z,4.40
2022-09-03T18:13:08.288Z,4.10
2022-09-03T18:15:57.558Z,4.30
2022-09-03T18:18:30.312Z,4.30
2022-09-03T18:21:29.245Z,4.30
2022-09-03T18:24:23.424Z,3.80
2022-09-03T18:27:19.051Z,4.40
2022-09-03T18:30:09.763Z,4.10
2022-09-03T18:35:40.847Z,4.10
2022-09-03T18:38:26.439Z,3.90
2022-09-03T18:41:27.807Z,3.90
2022-09-03T18:44:20.367Z,3.70
2022-09-03T18:48:02.050Z,4.30
2022-09-03T18:50:43.580Z,4.40
2022-09-03T18:53:49.139Z,3.40
2022-09-03T18:56:47.227Z,3.90
2022-09-03T18:59:48.597Z,3.80
2022-09-03T19:02:52.068Z,3.70
2022-09-03T19:06:02.582Z,4.10
2022-09-03T19:09:00.258Z,3.50
2022-09-03T19:12:22.241Z,3.10
2022-09-03T19:15:17.431Z,3.40
2022-09-03T19:18:09.883Z,3.50
2022-09-03T19:20:55.277Z,3.20
2022-09-03T19:23:41.382Z,3.40
2022-09-03T19:26:58.414Z,3.10
2022-09-03T19:29:49.847Z,3.80
2022-09-03T19:32:37.893Z,3.30
2022-09-03T19:35:30.861Z,3.30
2022-09-03T19:38:39.199Z,2.80
2022-09-03T19:41:37.182Z,3.40
2022-09-03T19:44:52.880Z,3.30
2022-09-03T19:48:04.177Z,3.00
2022-09-03T19:50:51.615Z,3.10
2022-09-03T19:53:39.387Z,3.50
2022-09-03T19:56:31.533Z,2.90
2022-09-03T19:59:22.821Z,3.00
2022-09-03T20:02:08.922Z,3.00
2022-09-03T20:05:06.082Z,3.10
2022-09-03T20:07:51.772Z,3.30
2022-09-03T20:10:25.388Z,3.10
2022-09-03T20:13:14.041Z,3.10
2022-09-03T20:16:12.069Z,3.80
2022-09-03T20:18:43.986Z,3.70
2022-09-03T20:21:19.031Z,2.90
2022-09-03T20:23:56.977Z,3.10
2022-09-03T20:26:33.810Z,2.80
2022-09-03T20:29:07.106Z,2.90
2022-09-03T20:32:11.329Z,3.30
2022-09-03T20:34:45.145Z,3.10
2022-09-03T20:37:28.174Z,2.80
2022-09-03T20:40:17.749Z,3.10
2022-09-03T20:43:00.672Z,3.40
2022-09-03T20:45:51.398Z,3.20
2022-09-03T20:50:56.853Z,3.00
2022-09-03T20:53:38.360Z,2.80
2022-09-03T20:56:48.297Z,2.90
2022-09-03T20:59:25.999Z,3.30
2022-09-03T21:02:00.094Z,3.20
2022-09-03T21:04:30.543Z,3.00
2022-09-03T21:07:08.761Z,3.00
2022-09-03T21:09:38.813Z,2.70
2022-09-03T21:13:03.802Z,3.10
2022-09-03T21:15:51.169Z,2.70
2022-09-03T21:21:04.781Z,2.50
2022-09-03T21:23:35.765Z,3.70
2022-09-03T21:28:38.636Z,2.90
2022-09-03T21:31:18.542Z,2.90
2022-09-03T21:33:54.450Z,3.10
2022-09-03T21:36:30.494Z,3.50
2022-09-03T21:39:03.610Z,2.80
2022-09-03T21:41:36.353Z,3.20
2022-09-03T21:44:08.875Z,3.10
2022-09-03T21:46:54.674Z,3.00
2022-09-03T21:49:29.370Z,3.10
2022-09-03T21:52:15.200Z,3.00
2022-09-03T21:54:42.558Z,2.90
2022-09-03T21:57:14.329Z,2.90
2022-09-03T21:59:59.936Z,3.40
2022-09-03T22:02:32.151Z,2.80
2022-09-03T22:04:59.942Z,3.30
2022-09-03T22:07:45.322Z,3.00
2022-09-03T22:10:47.504Z,3.20
2022-09-03T22:13:36.062Z,3.20
2022-09-03T22:16:30.362Z,3.10
2022-09-03T22:18:57.619Z,3.30
2022-09-03T22:21:34.203Z,3.20
2022-09-03T22:24:23.620Z,3.40
2022-09-03T22:26:58.418Z,3.50
2022-09-03T22:29:34.591Z,3.20
2022-09-03T22:32:29.793Z,3.30
2022-09-03T22:35:32.790Z,3.50
2022-09-03T22:38:28.310Z,3.10
2022-09-03T22:41:16.356Z,3.50
2022-09-03T22:43:50.066Z,3.10
2022-09-03T22:46:18.232Z,3.90
2022-09-03T22:49:19.507Z,3.50
2022-09-03T22:51:50.659Z,3.50
2022-09-03T22:54:24.169Z,3.70
2022-09-03T22:56:51.220Z,4.00
2022-09-03T22:59:30.868Z,3.30
2022-09-03T23:02:00.893Z,3.70
2022-09-03T23:04:37.575Z,4.00
2022-09-03T23:07:19.194Z,3.60
2022-09-03T23:09:51.035Z,3.60
2022-09-03T23:12:22.287Z,3.50
2022-09-03T23:14:54.071Z,3.60
2022-09-03T23:22:54.737Z,3.70
2022-09-03T23:25:22.705Z,3.60
2022-09-03T23:28:01.727Z,3.80
2022-09-03T23:30:28.793Z,3.30
2022-09-03T23:32:58.179Z,3.60
2022-09-03T23:35:28.345Z,3.90
2022-09-03T23:38:22.369Z,3.70
2022-09-03T23:40:50.277Z,3.90
2022-09-03T23:43:22.695Z,4.20
2022-09-03T23:45:55.782Z,3.50
2022-09-03T23:48:36.938Z,4.10
2022-09-03T23:51:16.082Z,3.60
2022-09-03T23:53:47.025Z,3.70
2022-09-03T23:56:21.892Z,3.30
2022-09-03T23:59:10.421Z,3.30
